createdAt,value
2018-06-17T00:00:22.012Z,16.90
2018-06-17T00:02:50.332Z,16.80
2018-06-17T00:05:18.640Z,16.70
2018-06-17T00:07:48.804Z,16.70
2018-06-17T00:10:17.156Z,16.80
2018-06-17T00:12:45.508Z,16.80
2018-06-17T00:15:13.860Z,16.80
2018-06-17T00:17:42.209Z,16.80
2018-06-17T00:20:10.517Z,16.80
2018-06-17T00:22:38.828Z,16.80
2018-06-17T00:25:07.153Z,16.90
2018-06-17T00:27:35.496Z,16.80
2018-06-17T00:30:03.853Z,16.70
2018-06-17T00:32:32.183Z,16.60
2018-06-17T00:35:00.524Z,16.50
2018-06-17T00:37:28.832Z,16.60
2018-06-17T00:39:57.160Z,16.60
2018-06-17T00:42:25.471Z,16.60
2018-06-17T00:44:53.797Z,16.50
2018-06-17T00:47:22.111Z,16.50
2018-06-17T00:49:50.480Z,16.30
2018-06-17T00:52:18.795Z,16.00
2018-06-17T00:54:47.356Z,16.00
2018-06-17T00:59:49.405Z,16.10
2018-06-17T01:02:17.716Z,16.20
2018-06-17T01:04:46.044Z,16.30
2018-06-17T01:07:14.353Z,16.30
2018-06-17T01:09:42.680Z,16.30
2018-06-17T01:12:10.985Z,16.40
2018-06-17T01:14:39.332Z,16.20
2018-06-17T01:17:07.637Z,16.20
2018-06-17T01:19:35.998Z,16.20
2018-06-17T01:22:04.338Z,16.30
2018-06-17T01:24:32.688Z,16.30
2018-06-17T01:27:00.992Z,16.30
2018-06-17T01:29:29.320Z,16.20
2018-06-17T01:31:57.620Z,16.00
2018-06-17T01:34:25.950Z,16.00
2018-06-17T01:36:54.264Z,16.10
2018-06-17T01:39:22.608Z,16.20
2018-06-17T01:41:50.922Z,16.20
2018-06-17T01:44:19.237Z,16.30
2018-06-17T01:46:47.560Z,16.30
2018-06-17T01:49:15.904Z,16.30
2018-06-17T01:51:44.235Z,16.20
2018-06-17T01:54:12.546Z,16.10
2018-06-17T01:56:40.864Z,16.20
2018-06-17T01:59:09.176Z,16.20
2018-06-17T02:01:37.529Z,16.20
2018-06-17T02:04:11.218Z,16.00
2018-06-17T02:06:44.932Z,15.90
2018-06-17T02:09:18.603Z,16.00
2018-06-17T02:11:52.388Z,16.10
2018-06-17T02:14:26.204Z,16.20
2018-06-17T02:16:54.540Z,16.20
2018-06-17T02:19:22.848Z,16.20
2018-06-17T02:21:51.173Z,16.20
2018-06-17T02:24:19.491Z,16.20
2018-06-17T02:26:47.821Z,16.20
2018-06-17T02:29:16.128Z,16.10
2018-06-17T02:31:44.452Z,16.10
2018-06-17T02:34:12.756Z,16.10
2018-06-17T02:36:41.079Z,16.10
2018-06-17T02:39:10.096Z,16.10
2018-06-17T02:41:38.812Z,16.00
2018-06-17T02:44:07.145Z,16.00
2018-06-17T02:46:40.934Z,16.10
2018-06-17T02:49:15.485Z,16.20
2018-06-17T02:52:49.212Z,16.20
2018-06-17T02:55:17.524Z,16.20
2018-06-17T02:57:45.856Z,16.30
2018-06-17T03:02:42.232Z,16.10
2018-06-17T03:05:10.532Z,16.00
2018-06-17T03:07:38.861Z,16.10
2018-06-17T03:10:07.188Z,16.10
2018-06-17T03:12:35.529Z,16.00
2018-06-17T03:15:03.928Z,15.90
2018-06-17T03:17:32.253Z,15.80
2018-06-17T03:20:00.566Z,15.70
2018-06-17T03:22:28.881Z,15.50
2018-06-17T03:25:02.608Z,15.60
2018-06-17T03:27:36.316Z,15.80
2018-06-17T03:30:10.266Z,15.90
2018-06-17T03:32:44.133Z,16.00
2018-06-17T03:35:17.744Z,16.20
2018-06-17T03:37:46.063Z,16.40
2018-06-17T03:40:14.368Z,16.40
2018-06-17T03:42:42.721Z,16.50
2018-06-17T03:45:11.043Z,16.60
2018-06-17T03:47:39.378Z,16.60
2018-06-17T03:50:07.748Z,16.60
2018-06-17T03:52:36.104Z,16.60
2018-06-17T03:55:04.420Z,16.70
2018-06-17T03:57:32.781Z,16.70
2018-06-17T04:00:01.105Z,16.70
2018-06-17T04:02:31.788Z,16.70
2018-06-17T04:05:05.336Z,16.60
2018-06-17T04:07:33.645Z,16.50
2018-06-17T04:10:02.045Z,16.30
2018-06-17T04:12:30.357Z,16.10
2018-06-17T04:14:58.703Z,16.10
2018-06-17T04:17:27.012Z,16.20
2018-06-17T04:19:55.340Z,16.40
2018-06-17T04:22:23.645Z,16.60
2018-06-17T04:24:51.972Z,16.70
2018-06-17T04:27:20.280Z,16.80
2018-06-17T04:29:48.608Z,16.70
2018-06-17T04:32:16.916Z,16.70
2018-06-17T04:34:45.242Z,16.70
2018-06-17T04:37:13.552Z,16.60
2018-06-17T04:39:41.876Z,16.50
2018-06-17T04:42:10.283Z,16.60
2018-06-17T04:44:38.608Z,16.50
2018-06-17T04:47:06.916Z,16.50
2018-06-17T04:49:35.353Z,16.60
2018-06-17T04:52:03.708Z,16.60
2018-06-17T04:54:32.068Z,16.70
2018-06-17T04:57:00.373Z,16.70
2018-06-17T04:59:28.703Z,16.80
2018-06-17T05:01:57.019Z,16.80
2018-06-17T05:04:25.361Z,16.90
2018-06-17T05:06:53.691Z,17.00
2018-06-17T05:09:22.017Z,17.10
2018-06-17T05:11:50.332Z,17.10
2018-06-17T05:14:18.673Z,17.20
2018-06-17T05:16:46.981Z,17.20
2018-06-17T05:19:15.334Z,17.30
2018-06-17T05:21:43.641Z,17.30
2018-06-17T05:24:11.950Z,17.30
2018-06-17T05:26:40.272Z,17.50
2018-06-17T05:29:08.636Z,17.60
2018-06-17T05:31:36.972Z,17.70
2018-06-17T05:34:05.492Z,17.90
2018-06-17T05:36:34.376Z,18.00
2018-06-17T05:39:02.684Z,18.10
2018-06-17T05:41:31.005Z,18.20
2018-06-17T05:43:59.312Z,18.30
2018-06-17T05:46:27.636Z,18.30
2018-06-17T05:48:55.941Z,18.50
2018-06-17T05:51:24.265Z,18.70
2018-06-17T05:53:52.559Z,19.00
2018-06-17T05:56:20.884Z,19.40
2018-06-17T05:58:49.175Z,19.60
2018-06-17T06:01:17.549Z,19.70
2018-06-17T06:03:45.840Z,19.80
2018-06-17T06:06:14.165Z,20.00
2018-06-17T06:08:42.543Z,20.10
2018-06-17T06:11:11.440Z,20.10
2018-06-17T06:13:39.756Z,20.00
2018-06-17T06:16:08.072Z,20.10
2018-06-17T06:18:36.381Z,20.20
2018-06-17T06:21:04.696Z,20.40
2018-06-17T06:26:01.098Z,20.60
2018-06-17T06:28:29.401Z,20.50
2018-06-17T06:30:57.820Z,20.40
2018-06-17T06:33:26.084Z,20.30
2018-06-17T06:35:54.408Z,20.30
2018-06-17T06:38:22.722Z,20.40
2018-06-17T06:40:51.019Z,20.50
2018-06-17T06:43:19.340Z,20.50
2018-06-17T06:45:47.636Z,20.60
2018-06-17T06:48:16.029Z,20.50
2018-06-17T06:50:44.324Z,20.40
2018-06-17T06:53:12.644Z,20.40
2018-06-17T06:55:40.949Z,20.60
2018-06-17T06:58:09.299Z,20.70
2018-06-17T07:00:37.600Z,20.70
2018-06-17T07:03:17.434Z,20.80
2018-06-17T07:05:57.104Z,20.80
2018-06-17T07:08:36.964Z,20.90
2018-06-17T07:11:05.341Z,21.00
2018-06-17T07:13:33.680Z,21.00
2018-06-17T07:16:13.368Z,21.00
2018-06-17T07:18:42.164Z,21.10
2018-06-17T07:21:10.936Z,21.30
2018-06-17T07:23:39.372Z,21.40
2018-06-17T07:26:32.545Z,21.60
2018-06-17T07:29:12.166Z,21.60
2018-06-17T07:31:40.469Z,21.70
2018-06-17T07:34:09.368Z,21.80
2018-06-17T07:36:38.157Z,22.00
2018-06-17T07:39:17.734Z,22.00
2018-06-17T07:41:46.925Z,21.90
2018-06-17T07:44:15.292Z,21.90
2018-06-17T07:46:43.596Z,21.90
2018-06-17T07:49:36.688Z,22.10
2018-06-17T07:52:17.141Z,22.20
2018-06-17T07:54:45.867Z,22.30
2018-06-17T07:57:15.369Z,22.40
2018-06-17T07:59:43.691Z,22.40
2018-06-17T08:02:12.809Z,22.40
2018-06-17T08:04:41.174Z,22.50
2018-06-17T08:07:10.912Z,22.50
2018-06-17T08:09:39.227Z,22.40
2018-06-17T08:12:09.386Z,22.50
2018-06-17T08:14:37.748Z,22.60
2018-06-17T08:17:06.184Z,22.60
2018-06-17T08:19:34.586Z,22.60
2018-06-17T08:22:03.288Z,22.50
2018-06-17T08:24:31.972Z,22.60
2018-06-17T08:27:00.291Z,22.60
2018-06-17T08:29:28.597Z,22.80
2018-06-17T08:31:57.276Z,22.60
2018-06-17T08:34:25.720Z,22.60
2018-06-17T08:36:54.036Z,22.50
2018-06-17T08:39:24.257Z,22.50
2018-06-17T08:41:52.611Z,22.60
2018-06-17T08:44:21.535Z,22.80
2018-06-17T08:46:50.343Z,22.80
2018-06-17T08:49:19.271Z,23.00
2018-06-17T08:51:47.627Z,23.10
2018-06-17T08:54:15.965Z,23.30
2018-06-17T08:56:44.300Z,23.30
2018-06-17T08:59:12.668Z,23.40
2018-06-17T09:01:40.991Z,23.40
2018-06-17T09:04:10.281Z,23.30
2018-06-17T09:06:38.640Z,23.20
2018-06-17T09:09:08.740Z,23.00
2018-06-17T09:11:37.260Z,22.80
2018-06-17T09:14:06.326Z,22.60
2018-06-17T09:16:34.670Z,22.50
2018-06-17T09:19:02.975Z,22.40
2018-06-17T09:21:31.859Z,22.40
2018-06-17T09:24:01.598Z,22.40
2018-06-17T09:26:30.031Z,22.30
2018-06-17T09:28:58.579Z,22.40
2018-06-17T09:31:26.876Z,22.40
2018-06-17T09:33:55.193Z,22.60
2018-06-17T09:36:23.739Z,22.60
2018-06-17T09:38:52.065Z,22.50
2018-06-17T09:41:20.483Z,22.60
2018-06-17T09:43:48.824Z,22.60
2018-06-17T09:46:17.645Z,22.50
2018-06-17T09:48:46.153Z,22.70
2018-06-17T09:51:14.732Z,22.80
2018-06-17T09:53:43.408Z,22.80
2018-06-17T09:56:11.715Z,22.80
2018-06-17T09:58:40.045Z,22.90
2018-06-17T10:01:08.353Z,22.90
2018-06-17T10:03:36.712Z,23.30
2018-06-17T10:06:05.233Z,23.30
2018-06-17T10:08:33.553Z,23.40
2018-06-17T10:11:02.852Z,23.60
2018-06-17T10:13:38.957Z,23.60
2018-06-17T10:16:07.504Z,23.50
2018-06-17T10:18:35.869Z,23.70
2018-06-17T10:21:04.206Z,23.50
2018-06-17T10:23:32.521Z,23.30
2018-06-17T10:26:00.820Z,23.20
2018-06-17T10:28:30.034Z,23.30
2018-06-17T10:30:59.442Z,23.50
2018-06-17T10:33:27.763Z,23.80
2018-06-17T10:35:56.223Z,23.90
2018-06-17T10:38:24.531Z,24.00
2018-06-17T10:40:52.836Z,23.80
2018-06-17T10:43:29.175Z,23.60
2018-06-17T10:45:57.469Z,23.70
2018-06-17T10:48:25.793Z,23.70
2018-06-17T10:50:54.131Z,23.80
2018-06-17T10:53:22.465Z,23.80
2018-06-17T10:55:50.861Z,23.80
2018-06-17T10:58:19.088Z,23.70
2018-06-17T11:00:47.413Z,23.70
2018-06-17T11:03:15.708Z,23.70
2018-06-17T11:05:44.080Z,23.50
2018-06-17T11:08:12.345Z,23.50
2018-06-17T11:10:40.664Z,23.50
2018-06-17T11:13:09.030Z,23.40
2018-06-17T11:15:37.332Z,22.80
2018-06-17T11:18:05.642Z,21.70
2018-06-17T11:20:33.956Z,20.80
2018-06-17T11:23:03.451Z,20.00
2018-06-17T11:25:31.768Z,19.00
2018-06-17T11:28:00.073Z,18.40
2018-06-17T11:30:28.404Z,18.00
2018-06-17T11:32:56.705Z,17.80
2018-06-17T11:35:25.018Z,17.70
2018-06-17T11:37:53.345Z,17.80
2018-06-17T11:40:21.661Z,17.90
2018-06-17T11:42:50.070Z,17.90
2018-06-17T11:45:18.405Z,18.00
2018-06-17T11:47:46.720Z,18.00
2018-06-17T11:50:15.033Z,18.10
2018-06-17T11:52:43.332Z,18.20
2018-06-17T11:55:11.693Z,18.30
2018-06-17T11:57:40.011Z,18.50
2018-06-17T12:00:08.328Z,18.80
2018-06-17T12:02:36.620Z,18.90
2018-06-17T12:05:04.936Z,19.10
2018-06-17T12:07:33.239Z,19.30
2018-06-17T12:10:01.576Z,19.60
2018-06-17T12:12:29.872Z,19.90
2018-06-17T12:14:58.200Z,20.00
2018-06-17T12:17:26.544Z,20.10
2018-06-17T12:19:54.858Z,20.40
2018-06-17T12:22:23.161Z,20.80
2018-06-17T12:24:51.478Z,20.90
2018-06-17T12:27:19.828Z,21.00
2018-06-17T12:29:48.130Z,20.90
2018-06-17T12:32:16.504Z,20.80
2018-06-17T12:34:44.796Z,20.90
2018-06-17T12:37:13.120Z,21.00
2018-06-17T12:39:41.419Z,21.20
2018-06-17T12:44:37.780Z,21.50
2018-06-17T12:47:06.097Z,21.30
2018-06-17T12:49:34.447Z,21.30
2018-06-17T12:52:02.770Z,21.40
2018-06-17T12:54:31.076Z,21.50
2018-06-17T12:56:59.564Z,21.70
2018-06-17T12:59:27.983Z,21.70
2018-06-17T13:01:56.393Z,21.80
2018-06-17T13:04:24.907Z,22.00
2018-06-17T13:06:53.220Z,22.50
2018-06-17T13:09:21.521Z,22.40
2018-06-17T13:11:50.033Z,22.20
2018-06-17T13:14:18.343Z,22.40
2018-06-17T13:16:46.664Z,22.70
2018-06-17T13:19:16.016Z,22.70
2018-06-17T13:21:45.200Z,22.70
2018-06-17T13:24:13.504Z,22.50
2018-06-17T13:26:41.821Z,22.30
2018-06-17T13:29:10.124Z,22.20
2018-06-17T13:31:38.479Z,22.20
2018-06-17T13:34:06.772Z,22.10
2018-06-17T13:36:35.070Z,22.10
2018-06-17T13:39:03.928Z,22.20
2018-06-17T13:41:32.233Z,22.20
2018-06-17T13:44:00.565Z,22.20
2018-06-17T13:46:28.858Z,22.00
2018-06-17T13:48:57.184Z,21.80
2018-06-17T13:51:25.485Z,21.80
2018-06-17T13:53:53.823Z,21.50
2018-06-17T13:56:22.124Z,21.50
2018-06-17T13:58:50.444Z,21.60
2018-06-17T14:03:47.647Z,21.70
2018-06-17T14:06:16.288Z,21.60
2018-06-17T14:08:44.617Z,21.60
2018-06-17T14:11:12.927Z,21.70
2018-06-17T14:13:41.273Z,21.70
2018-06-17T14:16:09.581Z,21.60
2018-06-17T14:18:37.903Z,21.40
2018-06-17T14:23:34.280Z,20.80
2018-06-17T14:26:02.601Z,20.60
2018-06-17T14:28:30.924Z,20.60
2018-06-17T14:30:59.232Z,20.50
2018-06-17T14:33:27.556Z,20.40
2018-06-17T14:35:55.852Z,20.40
2018-06-17T14:38:24.267Z,20.50
2018-06-17T14:41:25.493Z,20.20
2018-06-17T14:43:59.287Z,20.00
2018-06-17T14:46:33.108Z,19.60
2018-06-17T14:49:06.994Z,19.50
2018-06-17T14:51:40.825Z,19.50
2018-06-17T14:54:09.148Z,19.70
2018-06-17T14:59:05.541Z,20.20
2018-06-17T15:01:33.845Z,20.20
2018-06-17T15:04:02.157Z,20.20
2018-06-17T15:06:30.453Z,20.10
2018-06-17T15:08:58.772Z,19.90
2018-06-17T15:11:27.089Z,19.70
2018-06-17T15:13:55.428Z,19.70
2018-06-17T15:16:23.733Z,19.70
2018-06-17T15:18:52.063Z,18.80
2018-06-17T15:21:20.466Z,18.00
2018-06-17T15:23:48.749Z,17.60
2018-06-17T15:26:17.160Z,17.50
2018-06-17T15:28:45.485Z,17.50
2018-06-17T15:31:20.039Z,17.40
2018-06-17T15:34:56.733Z,17.40
2018-06-17T15:37:30.472Z,17.50
2018-06-17T15:39:58.781Z,17.50
2018-06-17T15:42:27.096Z,17.60
2018-06-17T15:44:55.420Z,17.70
2018-06-17T15:47:23.808Z,17.80
2018-06-17T15:49:52.151Z,17.90
2018-06-17T15:52:20.492Z,18.00
2018-06-17T15:54:48.840Z,18.00
2018-06-17T15:57:17.147Z,18.10
2018-06-17T15:59:45.445Z,18.20
2018-06-17T16:02:13.771Z,18.30
2018-06-17T16:04:42.080Z,18.60
2018-06-17T16:07:10.400Z,18.90
2018-06-17T16:09:38.750Z,19.10
2018-06-17T16:12:12.476Z,19.20
2018-06-17T16:14:46.325Z,19.30
2018-06-17T16:17:19.911Z,19.40
2018-06-17T16:19:53.617Z,19.40
2018-06-17T16:24:50.475Z,19.30
2018-06-17T16:27:19.018Z,19.40
2018-06-17T16:29:47.456Z,19.70
2018-06-17T16:32:15.776Z,20.10
2018-06-17T16:34:44.104Z,20.40
2018-06-17T16:37:12.484Z,20.40
2018-06-17T16:39:40.784Z,20.50
2018-06-17T16:42:09.106Z,20.40
2018-06-17T16:44:37.405Z,20.20
2018-06-17T16:47:05.733Z,20.10
2018-06-17T16:49:34.036Z,19.80
2018-06-17T16:52:07.768Z,19.80
2018-06-17T16:54:41.416Z,19.80
2018-06-17T16:57:15.048Z,19.80
2018-06-17T16:59:55.576Z,19.70
2018-06-17T17:02:23.921Z,19.60
2018-06-17T17:04:52.345Z,19.40
2018-06-17T17:07:20.741Z,19.30
2018-06-17T17:09:50.373Z,19.30
2018-06-17T17:12:20.137Z,19.10
2018-06-17T17:14:48.533Z,19.00
2018-06-17T17:17:16.861Z,19.00
2018-06-17T17:19:45.165Z,19.00
2018-06-17T17:22:13.493Z,18.90
2018-06-17T17:24:41.817Z,18.90
2018-06-17T17:27:10.145Z,18.90
2018-06-17T17:29:38.444Z,18.80
2018-06-17T17:32:12.180Z,18.80
2018-06-17T17:37:19.488Z,18.70
2018-06-17T17:39:53.128Z,18.60
2018-06-17T17:42:21.460Z,18.50
2018-06-17T17:44:55.240Z,18.40
2018-06-17T17:47:25.089Z,18.40
2018-06-17T17:49:53.971Z,18.40
2018-06-17T17:52:22.287Z,18.50
2018-06-17T17:54:50.600Z,18.60
2018-06-17T17:57:18.913Z,18.70
2018-06-17T17:59:47.364Z,18.80
2018-06-17T18:02:16.970Z,18.90
2018-06-17T18:04:45.297Z,19.00
2018-06-17T18:07:13.664Z,19.00
2018-06-17T18:09:41.984Z,19.00
2018-06-17T18:12:10.344Z,19.00
2018-06-17T18:14:38.680Z,18.90
2018-06-17T18:17:07.300Z,18.90
2018-06-17T18:19:35.736Z,18.70
2018-06-17T18:22:04.306Z,18.70
2018-06-17T18:24:32.740Z,18.70
2018-06-17T18:27:06.492Z,18.60
2018-06-17T18:29:40.229Z,18.60
2018-06-17T18:32:13.910Z,18.60
2018-06-17T18:34:47.563Z,18.50
2018-06-17T18:37:16.028Z,18.40
2018-06-17T18:39:44.352Z,18.30
2018-06-17T18:42:12.665Z,18.20
2018-06-17T18:44:40.993Z,18.20
2018-06-17T18:47:09.309Z,18.20
2018-06-17T18:49:37.630Z,18.10
2018-06-17T18:52:05.972Z,18.00
2018-06-17T18:54:34.293Z,18.10
2018-06-17T18:57:02.593Z,18.40
2018-06-17T18:59:30.916Z,18.30
2018-06-17T19:01:59.260Z,18.20
2018-06-17T19:04:27.625Z,18.10
2018-06-17T19:06:55.929Z,18.00
2018-06-17T19:09:29.545Z,17.90
2018-06-17T19:12:03.169Z,17.90
2018-06-17T19:14:37.005Z,17.90
2018-06-17T19:17:11.069Z,17.90
2018-06-17T19:19:39.392Z,17.80
2018-06-17T19:22:07.717Z,17.70
2018-06-17T19:24:36.065Z,17.70
2018-06-17T19:27:04.782Z,17.70
2018-06-17T19:29:33.372Z,17.60
2018-06-17T19:32:01.874Z,17.50
2018-06-17T19:34:30.181Z,17.40
2018-06-17T19:36:58.509Z,17.40
2018-06-17T19:39:26.857Z,17.30
2018-06-17T19:41:55.180Z,17.30
2018-06-17T19:44:23.493Z,17.30
2018-06-17T19:46:51.817Z,17.30
2018-06-17T19:49:20.181Z,17.30
2018-06-17T19:52:55.812Z,17.30
2018-06-17T19:55:29.457Z,17.30
2018-06-17T19:58:03.105Z,17.40
2018-06-17T20:00:31.895Z,17.40
2018-06-17T20:03:00.413Z,17.40
2018-06-17T20:05:28.708Z,17.40
2018-06-17T20:07:57.028Z,17.30
2018-06-17T20:10:25.385Z,17.30
2018-06-17T20:12:53.952Z,17.40
2018-06-17T20:15:22.351Z,17.30
2018-06-17T20:17:50.637Z,17.30
2018-06-17T20:20:18.955Z,17.40
2018-06-17T20:22:47.316Z,17.40
2018-06-17T20:25:15.636Z,17.40
2018-06-17T20:27:43.956Z,17.40
2018-06-17T20:30:12.265Z,17.30
2018-06-17T20:32:45.901Z,17.30
2018-06-17T20:35:19.432Z,17.30
2018-06-17T20:37:53.109Z,17.20
2018-06-17T20:40:26.728Z,17.20
2018-06-17T20:43:00.464Z,17.10
2018-06-17T20:45:28.764Z,17.10
2018-06-17T20:47:57.135Z,17.10
2018-06-17T20:50:25.404Z,17.10
2018-06-17T20:52:53.720Z,17.00
2018-06-17T20:55:22.029Z,17.00
2018-06-17T20:57:50.365Z,17.00
2018-06-17T21:00:18.668Z,17.00
2018-06-17T21:02:47.184Z,17.00
2018-06-17T21:05:15.487Z,16.90
2018-06-17T21:07:43.809Z,16.90
2018-06-17T21:10:12.116Z,16.80
2018-06-17T21:12:40.444Z,16.80
2018-06-17T21:15:14.156Z,16.60
2018-06-17T21:17:42.484Z,16.50
2018-06-17T21:20:16.164Z,16.50
2018-06-17T21:22:49.976Z,16.50
2018-06-17T21:25:23.668Z,16.60
2018-06-17T21:27:53.434Z,16.60
2018-06-17T21:30:22.043Z,16.60
2018-06-17T21:32:50.349Z,16.60
2018-06-17T21:35:18.901Z,16.60
2018-06-17T21:37:47.192Z,16.60
2018-06-17T21:40:15.522Z,16.60
2018-06-17T21:42:43.832Z,16.70
2018-06-17T21:45:12.473Z,16.60
2018-06-17T21:47:41.560Z,16.60
2018-06-17T21:50:09.868Z,16.50
2018-06-17T21:52:38.184Z,16.50
2018-06-17T21:55:06.756Z,16.50
2018-06-17T21:57:35.147Z,16.40
2018-06-17T22:00:03.523Z,16.10
2018-06-17T22:02:31.836Z,16.10
2018-06-17T22:05:00.153Z,16.10
2018-06-17T22:07:28.456Z,16.00
2018-06-17T22:10:02.190Z,15.80
2018-06-17T22:12:35.825Z,15.70
2018-06-17T22:15:09.512Z,15.40
2018-06-17T22:17:43.312Z,15.40
2018-06-17T22:20:11.632Z,15.10
2018-06-17T22:22:39.936Z,15.20
2018-06-17T22:25:08.267Z,15.30
2018-06-17T22:27:36.576Z,15.50
2018-06-17T22:30:05.193Z,15.50
2018-06-17T22:32:33.505Z,15.50
2018-06-17T22:35:01.832Z,15.30
2018-06-17T22:37:30.136Z,15.20
2018-06-17T22:39:58.471Z,15.10
2018-06-17T22:42:26.817Z,15.10
2018-06-17T22:44:55.148Z,15.00
2018-06-17T22:47:28.981Z,15.00
2018-06-17T22:49:57.305Z,15.00
2018-06-17T22:52:25.885Z,15.10
2018-06-17T22:54:54.899Z,15.20
2018-06-17T22:57:28.725Z,15.40
2018-06-17T23:00:02.601Z,15.70
2018-06-17T23:02:36.353Z,15.50
2018-06-17T23:05:10.229Z,15.30
2018-06-17T23:07:44.064Z,15.20
2018-06-17T23:10:12.420Z,15.20
2018-06-17T23:12:40.724Z,15.50
2018-06-17T23:15:09.056Z,15.50
2018-06-17T23:17:37.385Z,15.70
2018-06-17T23:20:05.696Z,15.80
2018-06-17T23:22:34.015Z,15.60
2018-06-17T23:25:02.316Z,15.50
2018-06-17T23:27:30.636Z,15.30
2018-06-17T23:29:58.940Z,15.20
2018-06-17T23:32:27.268Z,15.40
2018-06-17T23:34:55.572Z,15.50
2018-06-17T23:37:23.896Z,15.60
2018-06-17T23:39:52.196Z,15.70
2018-06-17T23:42:20.511Z,15.70
2018-06-17T23:44:48.809Z,15.80
2018-06-17T23:49:55.960Z,15.90
2018-06-17T23:52:29.677Z,16.00
2018-06-17T23:55:03.493Z,16.00
2018-06-17T23:57:31.816Z,16.00
